createdAt,value
2019-04-06T00:00:41.243Z,990.13
2019-04-06T00:01:41.216Z,990.08
2019-04-06T00:02:41.259Z,990.11
2019-04-06T00:03:41.203Z,990.13
2019-04-06T00:04:41.216Z,990.13
2019-04-06T00:05:41.183Z,990.10
2019-04-06T00:06:41.169Z,990.14
2019-04-06T00:07:41.148Z,990.07
2019-04-06T00:08:41.143Z,990.15
2019-04-06T00:09:41.145Z,990.17
2019-04-06T00:10:41.120Z,990.19
2019-04-06T00:11:41.122Z,990.15
2019-04-06T00:12:41.097Z,990.12
2019-04-06T00:13:41.086Z,990.13
2019-04-06T00:14:41.099Z,990.12
2019-04-06T00:15:41.068Z,990.09
2019-04-06T00:16:41.055Z,990.10
2019-04-06T00:17:41.044Z,990.10
2019-04-06T00:18:41.030Z,990.06
2019-04-06T00:19:41.039Z,990.06
2019-04-06T00:20:41.022Z,990.04
2019-04-06T00:21:41.007Z,990.02
2019-04-06T00:22:40.995Z,990.10
2019-04-06T00:23:40.982Z,990.04
2019-04-06T00:24:41.013Z,990.03
2019-04-06T00:25:44.752Z,990.03
2019-04-06T00:26:40.992Z,990.02
2019-04-06T00:27:40.970Z,990.01
2019-04-06T00:28:40.946Z,989.99
2019-04-06T00:29:40.927Z,990.01
2019-04-06T00:30:40.967Z,990.00
2019-04-06T00:31:40.921Z,989.98
2019-04-06T00:32:40.885Z,990.02
2019-04-06T00:33:40.881Z,990.00
2019-04-06T00:34:40.870Z,989.96
2019-04-06T00:35:40.855Z,989.97
2019-04-06T00:36:40.845Z,989.94
2019-04-06T00:37:40.844Z,989.93
2019-04-06T00:38:40.821Z,989.93
2019-04-06T00:39:40.824Z,989.95
2019-04-06T00:40:40.862Z,989.90
2019-04-06T00:41:40.801Z,989.94
2019-04-06T00:42:40.794Z,989.94
2019-04-06T00:43:40.776Z,989.99
2019-04-06T00:44:40.772Z,989.93
2019-04-06T00:45:40.793Z,989.95
2019-04-06T00:46:40.733Z,989.95
2019-04-06T00:47:40.743Z,989.98
2019-04-06T00:48:40.736Z,989.97
2019-04-06T00:49:40.719Z,989.94
2019-04-06T00:50:40.713Z,989.97
2019-04-06T00:51:40.691Z,989.98
2019-04-06T00:52:40.684Z,990.00
2019-04-06T00:53:40.667Z,989.98
2019-04-06T00:54:40.718Z,989.93
2019-04-06T00:55:40.659Z,989.97
2019-04-06T00:56:40.626Z,989.95
2019-04-06T00:57:40.626Z,989.90
2019-04-06T00:58:40.614Z,989.92
2019-04-06T00:59:40.661Z,989.88
2019-04-06T01:00:40.599Z,989.88
2019-04-06T01:01:40.592Z,989.89
2019-04-06T01:02:40.585Z,989.89
2019-04-06T01:03:40.557Z,989.90
2019-04-06T01:04:40.540Z,989.90
2019-04-06T01:05:40.528Z,989.89
2019-04-06T01:06:40.541Z,989.91
2019-04-06T01:07:40.537Z,989.86
2019-04-06T01:08:40.512Z,989.90
2019-04-06T01:09:40.488Z,989.86
2019-04-06T01:10:40.522Z,989.84
2019-04-06T01:11:40.467Z,989.85
2019-04-06T01:12:40.463Z,989.84
2019-04-06T01:13:40.461Z,989.84
2019-04-06T01:14:40.463Z,989.83
2019-04-06T01:15:40.466Z,989.85
2019-04-06T01:16:40.410Z,989.88
2019-04-06T01:17:40.402Z,989.94
2019-04-06T01:18:40.418Z,989.93
2019-04-06T01:19:40.404Z,989.89
2019-04-06T01:20:40.377Z,989.89
2019-04-06T01:21:40.372Z,989.93
2019-04-06T01:22:40.491Z,989.88
2019-04-06T01:23:40.365Z,989.88
2019-04-06T01:24:40.380Z,989.86
2019-04-06T01:25:40.328Z,989.83
2019-04-06T01:26:40.310Z,989.83
2019-04-06T01:27:40.308Z,989.81
2019-04-06T01:28:40.312Z,989.77
2019-04-06T01:29:40.270Z,989.77
2019-04-06T01:30:40.275Z,989.77
2019-04-06T01:31:40.254Z,989.75
2019-04-06T01:32:40.331Z,989.78
2019-04-06T01:33:40.268Z,989.75
2019-04-06T01:34:40.224Z,989.75
2019-04-06T01:35:40.215Z,989.72
2019-04-06T01:36:40.205Z,989.68
2019-04-06T01:37:40.198Z,989.72
2019-04-06T01:38:40.179Z,989.78
2019-04-06T01:39:40.170Z,989.75
2019-04-06T01:40:40.179Z,989.70
2019-04-06T01:41:40.145Z,989.71
2019-04-06T01:42:40.227Z,989.73
2019-04-06T01:43:40.118Z,989.75
2019-04-06T01:44:40.167Z,989.72
2019-04-06T01:45:40.105Z,989.77
2019-04-06T01:46:40.097Z,989.77
2019-04-06T01:47:40.155Z,989.78
2019-04-06T01:48:40.087Z,989.78
2019-04-06T01:49:40.067Z,989.77
2019-04-06T01:50:40.069Z,989.73
2019-04-06T01:51:40.050Z,989.73
2019-04-06T01:52:40.050Z,989.74
2019-04-06T01:53:40.030Z,989.77
2019-04-06T01:54:40.032Z,989.77
2019-04-06T01:55:39.998Z,989.75
2019-04-06T01:56:40.026Z,989.74
2019-04-06T01:57:39.983Z,989.74
2019-04-06T01:58:39.966Z,989.72
2019-04-06T01:59:39.970Z,989.73
2019-04-06T02:00:39.953Z,989.70
2019-04-06T02:01:39.939Z,989.67
2019-04-06T02:02:39.931Z,989.68
2019-04-06T02:03:39.911Z,989.65
2019-04-06T02:04:39.904Z,989.65
2019-04-06T02:05:39.938Z,989.64
2019-04-06T02:06:39.891Z,989.69
2019-04-06T02:07:39.882Z,989.69
2019-04-06T02:08:39.858Z,989.71
2019-04-06T02:09:39.852Z,989.68
2019-04-06T02:10:39.837Z,989.67
2019-04-06T02:11:39.836Z,989.70
2019-04-06T02:12:39.827Z,989.70
2019-04-06T02:13:39.900Z,989.66
2019-04-06T02:14:39.788Z,989.66
2019-04-06T02:15:39.767Z,989.71
2019-04-06T02:16:39.782Z,989.71
2019-04-06T02:17:39.771Z,989.71
2019-04-06T02:18:39.752Z,989.68
2019-04-06T02:19:39.753Z,989.66
2019-04-06T02:20:39.713Z,989.65
2019-04-06T02:21:39.716Z,989.69
2019-04-06T02:22:39.722Z,989.66
2019-04-06T02:23:39.680Z,989.66
2019-04-06T02:24:39.676Z,989.65
2019-04-06T02:25:39.674Z,989.62
2019-04-06T02:26:39.665Z,989.60
2019-04-06T02:27:39.637Z,989.65
2019-04-06T02:28:39.664Z,989.60
2019-04-06T02:29:39.629Z,989.62
2019-04-06T02:30:39.613Z,989.63
2019-04-06T02:31:39.770Z,989.64
2019-04-06T02:32:39.696Z,989.65
2019-04-06T02:33:39.577Z,989.65
2019-04-06T02:34:39.593Z,989.65
2019-04-06T02:35:39.599Z,989.65
2019-04-06T02:36:39.739Z,989.65
2019-04-06T02:37:39.538Z,989.66
2019-04-06T02:38:39.573Z,989.68
2019-04-06T02:39:39.529Z,989.64
2019-04-06T02:40:39.516Z,989.69
2019-04-06T02:41:39.501Z,989.68
2019-04-06T02:42:39.513Z,989.70
2019-04-06T02:43:39.510Z,989.65
2019-04-06T02:44:39.469Z,989.62
2019-04-06T02:45:39.491Z,989.62
2019-04-06T02:46:39.681Z,989.64
2019-04-06T02:47:39.446Z,989.61
2019-04-06T02:48:39.475Z,989.61
2019-04-06T02:49:39.419Z,989.65
2019-04-06T02:50:39.398Z,989.67
2019-04-06T02:51:39.470Z,989.64
2019-04-06T02:52:39.398Z,989.66
2019-04-06T02:53:39.363Z,989.66
2019-04-06T02:54:39.351Z,989.63
2019-04-06T02:55:39.469Z,989.67
2019-04-06T02:56:46.644Z,989.69
2019-04-06T02:57:40.343Z,989.71
2019-04-06T02:58:39.363Z,989.71
2019-04-06T02:59:39.295Z,989.73
2019-04-06T03:00:39.298Z,989.70
2019-04-06T03:01:39.277Z,989.73
2019-04-06T03:02:39.284Z,989.76
2019-04-06T03:03:39.389Z,989.76
2019-04-06T03:04:39.239Z,989.74
2019-04-06T03:05:39.264Z,989.77
2019-04-06T03:06:39.233Z,989.75
2019-04-06T03:07:39.213Z,989.75
2019-04-06T03:08:39.253Z,989.68
2019-04-06T03:09:39.192Z,989.72
2019-04-06T03:10:39.192Z,989.74
2019-04-06T03:11:39.180Z,989.72
2019-04-06T03:12:39.185Z,989.71
2019-04-06T03:13:39.161Z,989.74
2019-04-06T03:14:39.152Z,989.72
2019-04-06T03:15:39.159Z,989.70
2019-04-06T03:16:39.129Z,989.68
2019-04-06T03:17:39.132Z,989.71
2019-04-06T03:18:39.141Z,989.74
2019-04-06T03:19:39.083Z,989.73
2019-04-06T03:20:39.093Z,989.79
2019-04-06T03:21:39.072Z,989.77
2019-04-06T03:22:39.084Z,989.73
2019-04-06T03:23:50.192Z,989.71
2019-04-06T03:24:40.269Z,989.77
2019-04-06T03:25:39.028Z,989.68
2019-04-06T03:26:39.023Z,989.71
2019-04-06T03:27:39.020Z,989.76
2019-04-06T03:28:39.000Z,989.69
2019-04-06T03:29:38.989Z,989.70
2019-04-06T03:30:38.984Z,989.72
2019-04-06T03:31:39.042Z,989.66
2019-04-06T03:32:39.029Z,989.71
2019-04-06T03:33:38.977Z,989.71
2019-04-06T03:34:39.003Z,989.71
2019-04-06T03:35:45.462Z,989.71
2019-04-06T03:36:39.902Z,989.73
2019-04-06T03:37:38.904Z,989.71
2019-04-06T03:38:38.938Z,989.74
2019-04-06T03:39:39.051Z,989.76
2019-04-06T03:40:38.885Z,989.74
2019-04-06T03:41:38.889Z,989.70
2019-04-06T03:42:38.865Z,989.73
2019-04-06T03:43:38.849Z,989.71
2019-04-06T03:44:38.817Z,989.68
2019-04-06T03:45:38.810Z,989.78
2019-04-06T03:46:38.869Z,989.79
2019-04-06T03:47:38.803Z,989.76
2019-04-06T03:48:38.776Z,989.75
2019-04-06T03:49:38.762Z,989.75
2019-04-06T03:50:38.828Z,989.76
2019-04-06T03:51:38.737Z,989.71
2019-04-06T03:52:38.738Z,989.62
2019-04-06T03:53:38.838Z,989.69
2019-04-06T03:54:38.713Z,989.65
2019-04-06T03:55:38.697Z,989.67
2019-04-06T03:56:38.676Z,989.64
2019-04-06T03:57:38.680Z,989.64
2019-04-06T03:58:38.663Z,989.66
2019-04-06T03:59:38.690Z,989.71
2019-04-06T04:00:38.631Z,989.74
2019-04-06T04:01:38.708Z,989.75
2019-04-06T04:02:38.632Z,989.72
2019-04-06T04:03:38.626Z,989.69
2019-04-06T04:04:38.611Z,989.70
2019-04-06T04:05:38.680Z,989.73
2019-04-06T04:06:38.574Z,989.74
2019-04-06T04:07:38.649Z,989.75
2019-04-06T04:08:38.560Z,989.72
2019-04-06T04:09:38.557Z,989.72
2019-04-06T04:10:38.539Z,989.77
2019-04-06T04:11:38.523Z,989.74
2019-04-06T04:12:38.523Z,989.77
2019-04-06T04:13:38.786Z,989.79
2019-04-06T04:14:38.540Z,989.85
2019-04-06T04:15:38.472Z,989.77
2019-04-06T04:16:38.466Z,989.82
2019-04-06T04:17:38.491Z,989.81
2019-04-06T04:18:38.446Z,989.85
2019-04-06T04:19:38.430Z,989.82
2019-04-06T04:20:38.424Z,989.83
2019-04-06T04:21:38.423Z,989.82
2019-04-06T04:22:38.456Z,989.82
2019-04-06T04:23:38.645Z,989.84
2019-04-06T04:24:38.372Z,989.82
2019-04-06T04:25:38.381Z,989.86
2019-04-06T04:26:38.563Z,989.88
2019-04-06T04:27:38.458Z,989.87
2019-04-06T04:28:38.347Z,989.89
2019-04-06T04:29:38.325Z,989.87
2019-04-06T04:30:38.309Z,989.88
2019-04-06T04:31:38.356Z,989.90
2019-04-06T04:32:38.333Z,989.84
2019-04-06T04:33:38.278Z,989.88
2019-04-06T04:34:38.270Z,989.86
2019-04-06T04:35:38.311Z,989.89
2019-04-06T04:36:38.317Z,989.87
2019-04-06T04:37:38.513Z,989.94
2019-04-06T04:38:38.259Z,989.92
2019-04-06T04:39:38.210Z,989.97
2019-04-06T04:40:38.210Z,989.96
2019-04-06T04:41:39.870Z,989.97
2019-04-06T04:42:38.185Z,989.95
2019-04-06T04:43:38.173Z,989.94
2019-04-06T04:44:38.189Z,989.95
2019-04-06T04:45:38.147Z,989.95
2019-04-06T04:46:38.147Z,990.00
2019-04-06T04:47:38.199Z,989.99
2019-04-06T04:48:38.138Z,989.96
2019-04-06T04:49:38.123Z,989.98
2019-04-06T04:50:38.112Z,989.99
2019-04-06T04:51:38.095Z,989.97
2019-04-06T04:52:38.076Z,989.96
2019-04-06T04:53:38.067Z,989.97
2019-04-06T04:54:38.087Z,989.94
2019-04-06T04:55:38.047Z,990.00
2019-04-06T04:56:38.039Z,990.01
2019-04-06T04:57:40.789Z,990.00
2019-04-06T04:58:38.015Z,990.02
2019-04-06T04:59:38.020Z,990.03
2019-04-06T05:00:37.993Z,990.05
2019-04-06T05:01:38.362Z,990.07
2019-04-06T05:02:37.971Z,990.04
2019-04-06T05:03:37.962Z,990.07
2019-04-06T05:04:37.966Z,990.07
2019-04-06T05:05:37.929Z,990.10
2019-04-06T05:06:37.926Z,990.08
2019-04-06T05:07:37.916Z,990.10
2019-04-06T05:08:37.910Z,990.13
2019-04-06T05:09:37.904Z,990.17
2019-04-06T05:10:37.882Z,990.19
2019-04-06T05:11:37.864Z,990.18
2019-04-06T05:12:37.869Z,990.24
2019-04-06T05:13:37.870Z,990.23
2019-04-06T05:14:37.850Z,990.21
2019-04-06T05:15:37.839Z,990.20
2019-04-06T05:16:37.880Z,990.23
2019-04-06T05:17:37.805Z,990.21
2019-04-06T05:18:37.801Z,990.24
2019-04-06T05:19:37.793Z,990.22
2019-04-06T05:20:37.823Z,990.14
2019-04-06T05:21:37.762Z,990.17
2019-04-06T05:22:37.766Z,990.15
2019-04-06T05:23:37.737Z,990.14
2019-04-06T05:24:37.742Z,990.20
2019-04-06T05:25:37.729Z,990.14
2019-04-06T05:26:38.397Z,990.20
2019-04-06T05:27:37.709Z,990.19
2019-04-06T05:28:37.688Z,990.21
2019-04-06T05:29:37.773Z,990.23
2019-04-06T05:30:37.708Z,990.21
2019-04-06T05:31:37.672Z,990.19
2019-04-06T05:32:37.660Z,990.21
2019-04-06T05:33:37.646Z,990.22
2019-04-06T05:34:37.650Z,990.20
2019-04-06T05:35:37.623Z,990.20
2019-04-06T05:36:37.616Z,990.21
2019-04-06T05:37:37.608Z,990.23
2019-04-06T05:38:37.585Z,990.21
2019-04-06T05:39:37.723Z,990.24
2019-04-06T05:40:37.661Z,990.27
2019-04-06T05:41:37.553Z,990.27
2019-04-06T05:42:37.756Z,990.30
2019-04-06T05:43:37.528Z,990.28
2019-04-06T05:44:37.686Z,990.28
2019-04-06T05:45:37.509Z,990.32
2019-04-06T05:46:37.663Z,990.28
2019-04-06T05:47:37.504Z,990.29
2019-04-06T05:48:37.664Z,990.29
2019-04-06T05:49:37.462Z,990.29
2019-04-06T05:50:37.457Z,990.34
2019-04-06T05:51:37.455Z,990.31
2019-04-06T05:52:37.460Z,990.33
2019-04-06T05:53:37.627Z,990.34
2019-04-06T05:54:37.751Z,990.35
2019-04-06T05:55:37.424Z,990.43
2019-04-06T05:56:37.408Z,990.37
2019-04-06T05:57:37.867Z,990.37
2019-04-06T05:58:39.995Z,990.44
2019-04-06T05:59:39.881Z,990.36
2019-04-06T06:00:39.962Z,990.37
2019-04-06T06:01:40.340Z,990.39
2019-04-06T06:02:40.325Z,990.35
2019-04-06T06:03:40.107Z,990.40
2019-04-06T06:04:40.185Z,990.45
2019-04-06T06:05:40.267Z,990.41
2019-04-06T06:06:37.285Z,990.47
2019-04-06T06:07:37.298Z,990.43
2019-04-06T06:08:37.265Z,990.42
2019-04-06T06:09:37.300Z,990.44
2019-04-06T06:10:38.380Z,990.45
2019-04-06T06:11:37.244Z,990.43
2019-04-06T06:12:37.215Z,990.43
2019-04-06T06:13:39.308Z,990.45
2019-04-06T06:14:37.306Z,990.47
2019-04-06T06:15:37.204Z,990.42
2019-04-06T06:16:37.214Z,990.43
2019-04-06T06:17:37.161Z,990.49
2019-04-06T06:18:37.152Z,990.47
2019-04-06T06:19:37.420Z,990.47
2019-04-06T06:20:37.133Z,990.45
2019-04-06T06:21:37.128Z,990.45
2019-04-06T06:22:37.142Z,990.45
2019-04-06T06:23:37.103Z,990.50
2019-04-06T06:24:37.107Z,990.50
2019-04-06T06:25:37.269Z,990.50
2019-04-06T06:26:37.069Z,990.42
2019-04-06T06:27:37.257Z,990.46
2019-04-06T06:28:37.050Z,990.48
2019-04-06T06:29:37.036Z,990.45
2019-04-06T06:30:37.058Z,990.47
2019-04-06T06:31:37.012Z,990.49
2019-04-06T06:32:37.029Z,990.49
2019-04-06T06:33:36.994Z,990.51
2019-04-06T06:34:37.181Z,990.47
2019-04-06T06:35:36.965Z,990.51
2019-04-06T06:36:36.981Z,990.46
2019-04-06T06:37:37.175Z,990.51
2019-04-06T06:38:38.998Z,990.48
2019-04-06T06:39:37.120Z,990.44
2019-04-06T06:40:36.934Z,990.48
2019-04-06T06:41:36.903Z,990.54
2019-04-06T06:42:37.100Z,990.54
2019-04-06T06:43:36.893Z,990.53
2019-04-06T06:44:36.884Z,990.50
2019-04-06T06:45:36.935Z,990.52
2019-04-06T06:46:36.863Z,990.51
2019-04-06T06:47:36.840Z,990.54
2019-04-06T06:48:36.834Z,990.48
2019-04-06T06:49:36.818Z,990.47
2019-04-06T06:50:36.823Z,990.48
2019-04-06T06:51:36.811Z,990.49
2019-04-06T06:52:36.785Z,990.48
2019-04-06T06:53:36.784Z,990.53
2019-04-06T06:54:36.768Z,990.50
2019-04-06T06:55:36.779Z,990.46
2019-04-06T06:56:36.758Z,990.47
2019-04-06T06:57:36.735Z,990.49
2019-04-06T06:58:36.770Z,990.52
2019-04-06T06:59:36.730Z,990.48
2019-04-06T07:00:36.729Z,990.46
2019-04-06T07:01:36.696Z,990.44
2019-04-06T07:02:36.677Z,990.45
2019-04-06T07:03:36.677Z,990.49
2019-04-06T07:04:36.738Z,990.41
2019-04-06T07:05:36.641Z,990.44
2019-04-06T07:06:36.659Z,990.47
2019-04-06T07:07:36.632Z,990.44
2019-04-06T07:08:36.616Z,990.47
2019-04-06T07:09:36.603Z,990.50
2019-04-06T07:10:36.588Z,990.49
2019-04-06T07:11:36.599Z,990.50
2019-04-06T07:12:36.577Z,990.52
2019-04-06T07:13:36.753Z,990.49
2019-04-06T07:14:36.559Z,990.50
2019-04-06T07:15:36.555Z,990.51
2019-04-06T07:16:36.529Z,990.51
2019-04-06T07:17:36.751Z,990.52
2019-04-06T07:18:36.530Z,990.51
2019-04-06T07:19:36.513Z,990.50
2019-04-06T07:20:36.486Z,990.50
2019-04-06T07:21:36.472Z,990.53
2019-04-06T07:22:36.720Z,990.53
2019-04-06T07:23:36.476Z,990.47
2019-04-06T07:24:36.446Z,990.54
2019-04-06T07:25:36.549Z,990.53
2019-04-06T07:26:36.415Z,990.50
2019-04-06T07:27:36.407Z,990.52
2019-04-06T07:28:38.880Z,990.48
2019-04-06T07:29:36.402Z,990.46
2019-04-06T07:30:36.374Z,990.52
2019-04-06T07:31:36.368Z,990.49
2019-04-06T07:32:36.371Z,990.52
2019-04-06T07:33:36.353Z,990.50
2019-04-06T07:34:36.338Z,990.47
2019-04-06T07:35:36.325Z,990.50
2019-04-06T07:36:36.316Z,990.48
2019-04-06T07:37:36.575Z,990.42
2019-04-06T07:38:37.933Z,990.47
2019-04-06T07:39:36.273Z,990.49
2019-04-06T07:40:36.325Z,990.49
2019-04-06T07:41:36.443Z,990.51
2019-04-06T07:42:36.279Z,990.50
2019-04-06T07:43:36.292Z,990.49
2019-04-06T07:44:36.290Z,990.53
2019-04-06T07:45:36.340Z,990.63
2019-04-06T07:46:36.198Z,990.55
2019-04-06T07:47:36.217Z,990.58
2019-04-06T07:48:36.445Z,990.58
2019-04-06T07:49:36.191Z,990.67
2019-04-06T07:50:36.232Z,990.61
2019-04-06T07:51:36.139Z,990.58
2019-04-06T07:52:36.352Z,990.65
2019-04-06T07:53:36.123Z,990.68
2019-04-06T07:54:36.156Z,990.70
2019-04-06T07:55:36.298Z,990.64
2019-04-06T07:56:36.088Z,990.77
2019-04-06T07:57:36.077Z,990.63
2019-04-06T07:58:47.148Z,990.81
2019-04-06T07:59:37.056Z,990.63
2019-04-06T08:00:36.050Z,990.58
2019-04-06T08:01:36.087Z,990.58
2019-04-06T08:02:36.025Z,990.55
2019-04-06T08:03:36.053Z,990.47
2019-04-06T08:04:36.112Z,990.50
2019-04-06T08:05:35.993Z,990.61
2019-04-06T08:06:36.005Z,990.54
2019-04-06T08:07:36.040Z,990.38
2019-04-06T08:08:35.960Z,990.69
2019-04-06T08:09:35.973Z,990.62
2019-04-06T08:10:35.970Z,990.65
2019-04-06T08:11:35.967Z,990.57
2019-04-06T08:12:35.936Z,990.56
2019-04-06T08:13:35.999Z,990.40
2019-04-06T08:14:35.908Z,990.36
2019-04-06T08:15:35.936Z,990.27
2019-04-06T08:16:35.879Z,990.25
2019-04-06T08:17:35.894Z,990.28
2019-04-06T08:18:35.950Z,990.20
2019-04-06T08:19:35.867Z,990.20
2019-04-06T08:20:35.836Z,990.25
2019-04-06T08:21:35.828Z,990.31
2019-04-06T08:22:35.909Z,990.24
2019-04-06T08:23:35.802Z,990.22
2019-04-06T08:24:35.810Z,990.22
2019-04-06T08:25:35.821Z,990.25
2019-04-06T08:26:35.928Z,990.27
2019-04-06T08:27:35.835Z,990.35
2019-04-06T08:28:35.871Z,990.30
2019-04-06T08:29:35.808Z,990.27
2019-04-06T08:30:44.686Z,990.25
2019-04-06T08:31:36.721Z,990.24
2019-04-06T08:32:35.710Z,990.26
2019-04-06T08:33:35.702Z,990.30
2019-04-06T08:34:35.855Z,990.25
2019-04-06T08:35:35.805Z,990.35
2019-04-06T08:36:35.737Z,990.36
2019-04-06T08:37:35.659Z,990.35
2019-04-06T08:38:35.820Z,990.32
2019-04-06T08:39:35.650Z,990.47
2019-04-06T08:40:35.649Z,990.56
2019-04-06T08:41:35.609Z,990.52
2019-04-06T08:42:35.605Z,990.66
2019-04-06T08:43:35.596Z,990.65
2019-04-06T08:44:35.890Z,990.59
2019-04-06T08:45:35.589Z,990.53
2019-04-06T08:46:35.580Z,990.41
2019-04-06T08:47:35.586Z,990.40
2019-04-06T08:48:35.537Z,990.09
2019-04-06T08:49:35.558Z,990.24
2019-04-06T08:50:35.521Z,990.56
2019-04-06T08:51:35.555Z,990.25
2019-04-06T08:52:35.561Z,990.43
2019-04-06T08:53:35.484Z,990.29
2019-04-06T08:54:35.473Z,990.62
2019-04-06T08:55:35.601Z,990.62
2019-04-06T08:56:35.457Z,990.63
2019-04-06T08:57:35.468Z,990.35
2019-04-06T08:58:35.639Z,990.58
2019-04-06T08:59:35.445Z,990.31
2019-04-06T09:00:35.662Z,990.21
2019-04-06T09:01:35.763Z,990.22
2019-04-06T09:02:35.414Z,990.40
2019-04-06T09:03:35.652Z,990.33
2019-04-06T09:04:35.376Z,990.46
2019-04-06T09:05:35.373Z,990.42
2019-04-06T09:06:35.354Z,990.45
2019-04-06T09:07:35.353Z,990.52
2019-04-06T09:08:35.635Z,990.52
2019-04-06T09:09:35.323Z,990.46
2019-04-06T09:10:35.312Z,990.51
2019-04-06T09:11:35.307Z,990.41
2019-04-06T09:12:35.314Z,990.46
2019-04-06T09:13:35.276Z,990.45
2019-04-06T09:14:35.274Z,990.10
2019-04-06T09:15:35.300Z,990.32
2019-04-06T09:16:35.247Z,990.40
2019-04-06T09:17:35.256Z,990.50
2019-04-06T09:18:35.248Z,990.44
2019-04-06T09:19:35.519Z,990.45
2019-04-06T09:20:35.239Z,990.43
2019-04-06T09:21:35.294Z,990.41
2019-04-06T09:22:35.222Z,990.48
2019-04-06T09:23:35.268Z,990.46
2019-04-06T09:24:35.182Z,990.07
2019-04-06T09:25:35.174Z,990.15
2019-04-06T09:26:35.146Z,990.01
2019-04-06T09:27:35.179Z,990.21
2019-04-06T09:28:35.243Z,990.39
2019-04-06T09:29:35.188Z,990.54
2019-04-06T09:30:35.123Z,990.25
2019-04-06T09:31:35.107Z,990.11
2019-04-06T09:32:35.180Z,990.07
2019-04-06T09:33:35.075Z,990.41
2019-04-06T09:34:35.232Z,990.16
2019-04-06T09:35:35.095Z,990.18
2019-04-06T09:36:35.143Z,990.41
2019-04-06T09:37:35.040Z,990.46
2019-04-06T09:38:35.065Z,990.42
2019-04-06T09:39:35.024Z,990.36
2019-04-06T09:40:35.009Z,989.99
2019-04-06T09:41:35.026Z,989.95
2019-04-06T09:42:35.255Z,989.96
2019-04-06T09:43:34.975Z,989.99
2019-04-06T09:44:35.301Z,990.25
2019-04-06T09:45:34.999Z,990.30
2019-04-06T09:46:34.937Z,989.92
2019-04-06T09:47:34.950Z,990.33
2019-04-06T09:48:34.997Z,990.28
2019-04-06T09:49:34.913Z,989.98
2019-04-06T09:50:34.922Z,990.32
2019-04-06T09:51:34.913Z,990.11
2019-04-06T09:52:34.882Z,989.96
2019-04-06T09:53:34.866Z,990.22
2019-04-06T09:54:34.864Z,990.20
2019-04-06T09:55:35.124Z,990.17
2019-04-06T09:56:34.966Z,990.20
2019-04-06T09:57:34.841Z,990.25
2019-04-06T09:58:34.815Z,990.18
2019-04-06T09:59:37.061Z,990.22
2019-04-06T10:00:34.809Z,990.23
2019-04-06T10:01:38.929Z,990.16
2019-04-06T10:02:34.816Z,990.14
2019-04-06T10:03:34.783Z,990.21
2019-04-06T10:04:34.758Z,990.18
2019-04-06T10:05:34.745Z,990.24
2019-04-06T10:06:34.739Z,990.21
2019-04-06T10:07:34.741Z,990.19
2019-04-06T10:08:34.758Z,990.17
2019-04-06T10:09:34.804Z,990.01
2019-04-06T10:10:34.875Z,990.04
2019-04-06T10:11:34.826Z,990.08
2019-04-06T10:12:34.691Z,990.01
2019-04-06T10:13:34.713Z,990.04
2019-04-06T10:14:34.661Z,989.99
2019-04-06T10:15:35.002Z,990.04
2019-04-06T10:16:34.888Z,990.09
2019-04-06T10:17:34.650Z,989.99
2019-04-06T10:18:34.627Z,989.97
2019-04-06T10:19:34.604Z,989.98
2019-04-06T10:20:34.596Z,990.09
2019-04-06T10:21:34.598Z,989.92
2019-04-06T10:22:34.896Z,989.92
2019-04-06T10:23:34.574Z,990.01
2019-04-06T10:24:34.560Z,989.91
2019-04-06T10:25:34.596Z,989.90
2019-04-06T10:26:34.549Z,989.91
2019-04-06T10:27:34.545Z,989.87
2019-04-06T10:28:34.655Z,989.81
2019-04-06T10:29:46.878Z,989.90
2019-04-06T10:30:35.582Z,989.77
2019-04-06T10:31:34.559Z,989.86
2019-04-06T10:32:34.477Z,989.80
2019-04-06T10:33:34.467Z,989.80
2019-04-06T10:34:34.652Z,989.82
2019-04-06T10:35:34.467Z,989.81
2019-04-06T10:36:34.636Z,989.87
2019-04-06T10:37:34.421Z,989.74
2019-04-06T10:38:34.422Z,989.74
2019-04-06T10:39:34.405Z,989.84
2019-04-06T10:40:34.402Z,989.78
2019-04-06T10:41:34.402Z,989.69
2019-04-06T10:42:34.389Z,989.70
2019-04-06T10:43:34.494Z,989.71
2019-04-06T10:44:34.360Z,989.73
2019-04-06T10:45:34.528Z,989.75
2019-04-06T10:46:34.344Z,989.73
2019-04-06T10:47:34.586Z,989.74
2019-04-06T10:48:34.325Z,989.66
2019-04-06T10:49:34.396Z,989.51
2019-04-06T10:50:34.286Z,989.44
2019-04-06T10:51:34.279Z,989.48
2019-04-06T10:52:34.276Z,989.39
2019-04-06T10:53:34.266Z,989.46
2019-04-06T10:54:34.543Z,989.46
2019-04-06T10:55:34.264Z,989.42
2019-04-06T10:56:34.238Z,989.42
2019-04-06T10:57:34.572Z,989.42
2019-04-06T10:58:34.270Z,989.51
2019-04-06T10:59:34.199Z,989.42
2019-04-06T11:00:34.254Z,989.46
2019-04-06T11:01:34.180Z,989.49
2019-04-06T11:02:34.208Z,989.48
2019-04-06T11:03:34.406Z,989.46
2019-04-06T11:04:34.155Z,989.47
2019-04-06T11:05:34.201Z,989.46
2019-04-06T11:06:34.134Z,989.56
2019-04-06T11:07:34.111Z,989.52
2019-04-06T11:08:34.111Z,989.52
2019-04-06T11:09:34.174Z,989.45
2019-04-06T11:10:34.076Z,989.49
2019-04-06T11:11:34.064Z,989.47
2019-04-06T11:12:34.415Z,989.49
2019-04-06T11:13:34.085Z,989.40
2019-04-06T11:14:34.030Z,989.42
2019-04-06T11:15:34.077Z,989.41
2019-04-06T11:16:34.013Z,989.57
2019-04-06T11:17:34.007Z,989.54
2019-04-06T11:18:34.010Z,989.37
2019-04-06T11:19:33.978Z,989.32
2019-04-06T11:20:34.246Z,989.34
2019-04-06T11:21:33.987Z,989.34
2019-04-06T11:22:33.943Z,989.31
2019-04-06T11:23:34.294Z,989.38
2019-04-06T11:24:33.952Z,989.48
2019-04-06T11:25:33.993Z,989.35
2019-04-06T11:26:34.235Z,989.33
2019-04-06T11:27:33.944Z,989.41
2019-04-06T11:28:33.881Z,989.34
2019-04-06T11:29:33.866Z,989.32
2019-04-06T11:30:33.918Z,989.31
2019-04-06T11:31:33.852Z,989.42
2019-04-06T11:32:33.838Z,989.28
2019-04-06T11:33:33.860Z,989.33
2019-04-06T11:34:33.810Z,989.29
2019-04-06T11:35:33.822Z,989.28
2019-04-06T11:36:33.797Z,989.27
2019-04-06T11:37:33.810Z,989.23
2019-04-06T11:38:33.779Z,989.23
2019-04-06T11:39:33.811Z,989.23
2019-04-06T11:40:33.790Z,989.24
2019-04-06T11:41:33.756Z,989.44
2019-04-06T11:42:33.926Z,989.31
2019-04-06T11:43:33.724Z,989.35
2019-04-06T11:44:33.709Z,989.26
2019-04-06T11:45:33.741Z,989.29
2019-04-06T11:46:33.699Z,989.25
2019-04-06T11:47:33.675Z,989.30
2019-04-06T11:48:33.756Z,989.33
2019-04-06T11:49:33.802Z,989.31
2019-04-06T11:50:33.683Z,989.29
2019-04-06T11:51:33.634Z,989.32
2019-04-06T11:52:33.717Z,989.29
2019-04-06T11:53:33.608Z,989.27
2019-04-06T11:54:33.599Z,989.27
2019-04-06T11:55:34.003Z,989.28
2019-04-06T11:56:33.856Z,989.24
2019-04-06T11:57:33.589Z,989.32
2019-04-06T11:58:33.649Z,989.26
2019-04-06T11:59:33.760Z,989.24
2019-04-06T12:00:33.783Z,989.25
2019-04-06T12:01:33.668Z,989.30
2019-04-06T12:02:33.522Z,989.29
2019-04-06T12:03:33.526Z,989.24
2019-04-06T12:04:33.501Z,989.24
2019-04-06T12:05:33.561Z,989.11
2019-04-06T12:06:33.633Z,989.18
2019-04-06T12:07:33.487Z,989.15
2019-04-06T12:08:33.629Z,989.15
2019-04-06T12:09:33.691Z,989.15
2019-04-06T12:10:33.437Z,989.06
2019-04-06T12:11:33.484Z,989.12
2019-04-06T12:12:33.750Z,989.22
2019-04-06T12:13:33.422Z,989.19
2019-04-06T12:14:33.417Z,989.17
2019-04-06T12:15:33.680Z,989.15
2019-04-06T12:16:33.377Z,989.19
2019-04-06T12:17:33.439Z,989.12
2019-04-06T12:18:33.345Z,989.15
2019-04-06T12:19:33.334Z,989.10
2019-04-06T12:20:33.347Z,989.08
2019-04-06T12:21:33.319Z,989.10
2019-04-06T12:22:33.331Z,989.09
2019-04-06T12:23:33.799Z,989.13
2019-04-06T12:24:33.699Z,989.03
2019-04-06T12:25:33.292Z,989.08
2019-04-06T12:26:33.349Z,989.10
2019-04-06T12:27:33.273Z,989.13
2019-04-06T12:28:33.352Z,989.12